sensor_id;sensor_type;location;lat;lon;timestamp;P1;durP1;ratioP1;P2;durP2;ratioP2
74922;SDS011;64715;44.760;37.678;2023-02-01T00:00:42;24.70;;;7.72;;
74922;SDS011;64715;44.760;37.678;2023-02-01T00:01:43;25.40;;;8.33;;
74922;SDS011;64715;44.760;37.678;2023-02-01T00:02:44;26.05;;;8.18;;
74922;SDS011;64715;44.760;37.678;2023-02-01T00:03:45;27.27;;;8.70;;
74922;SDS011;64715;44.760;37.678;2023-02-01T00:04:46;26.70;;;8.95;;
74922;SDS011;64715;44.760;37.678;2023-02-01T00:05:56;28.80;;;9.13;;
74922;SDS011;64715;44.760;37.678;2023-02-01T00:06:58;28.30;;;9.85;;
74922;SDS011;64715;44.760;37.678;2023-02-01T00:07:59;26.60;;;9.23;;
74922;SDS011;64715;44.760;37.678;2023-02-01T00:09:00;33.20;;;11.82;;
74922;SDS011;64715;44.760;37.678;2023-02-01T00:10:02;36.80;;;13.55;;
74922;SDS011;64715;44.760;37.678;2023-02-01T00:11:05;38.70;;;14.05;;
74922;SDS011;64715;44.760;37.678;2023-02-01T00:12:08;44.20;;;18.42;;
74922;SDS011;64715;44.760;37.678;2023-02-01T00:13:10;64.25;;;27.73;;
74922;SDS011;64715;44.760;37.678;2023-02-01T00:14:11;79.40;;;34.05;;
74922;SDS011;64715;44.760;37.678;2023-02-01T00:15:12;75.60;;;34.15;;
74922;SDS011;64715;44.760;37.678;2023-02-01T00:16:17;83.23;;;34.63;;
74922;SDS011;64715;44.760;37.678;2023-02-01T00:17:19;74.40;;;29.70;;
74922;SDS011;64715;44.760;37.678;2023-02-01T00:18:20;56.60;;;23.33;;
74922;SDS011;64715;44.760;37.678;2023-02-01T00:19:22;38.75;;;14.57;;
74922;SDS011;64715;44.760;37.678;2023-02-01T00:20:23;31.10;;;10.48;;
74922;SDS011;64715;44.760;37.678;2023-02-01T00:21:23;25.88;;;8.88;;
74922;SDS011;64715;44.760;37.678;2023-02-01T00:22:24;26.83;;;7.60;;
74922;SDS011;64715;44.760;37.678;2023-02-01T00:23:26;24.63;;;7.47;;
74922;SDS011;64715;44.760;37.678;2023-02-01T00:24:27;25.13;;;7.88;;
74922;SDS011;64715;44.760;37.678;2023-02-01T00:25:28;24.02;;;6.93;;
74922;SDS011;64715;44.760;37.678;2023-02-01T00:26:33;22.55;;;6.43;;
74922;SDS011;64715;44.760;37.678;2023-02-01T00:27:36;23.10;;;6.68;;
74922;SDS011;64715;44.760;37.678;2023-02-01T00:28:37;21.10;;;6.47;;
74922;SDS011;64715;44.760;37.678;2023-02-01T00:29:38;23.00;;;6.72;;
74922;SDS011;64715;44.760;37.678;2023-02-01T00:30:39;25.10;;;7.43;;
74922;SDS011;64715;44.760;37.678;2023-02-01T00:31:40;31.05;;;9.75;;
74922;SDS011;64715;44.760;37.678;2023-02-01T00:32:41;25.40;;;7.88;;
74922;SDS011;64715;44.760;37.678;2023-02-01T00:33:42;27.23;;;7.35;;
74922;SDS011;64715;44.760;37.678;2023-02-01T00:34:43;28.75;;;10.20;;
74922;SDS011;64715;44.760;37.678;2023-02-01T00:35:44;25.65;;;8.63;;
74922;SDS011;64715;44.760;37.678;2023-02-01T00:36:45;25.93;;;9.23;;
74922;SDS011;64715;44.760;37.678;2023-02-01T00:37:46;24.27;;;9.07;;
74922;SDS011;64715;44.760;37.678;2023-02-01T00:38:47;23.45;;;7.82;;
74922;SDS011;64715;44.760;37.678;2023-02-01T00:39:48;23.48;;;7.38;;
74922;SDS011;64715;44.760;37.678;2023-02-01T00:40:49;23.10;;;7.32;;
74922;SDS011;64715;44.760;37.678;2023-02-01T00:41:50;21.63;;;8.10;;
74922;SDS011;64715;44.760;37.678;2023-02-01T00:42:52;21.27;;;7.03;;
74922;SDS011;64715;44.760;37.678;2023-02-01T00:43:53;22.35;;;6.78;;
74922;SDS011;64715;44.760;37.678;2023-02-01T00:44:54;18.92;;;6.10;;
74922;SDS011;64715;44.760;37.678;2023-02-01T00:45:55;21.85;;;5.95;;
74922;SDS011;64715;44.760;37.678;2023-02-01T00:46:56;21.17;;;5.90;;
74922;SDS011;64715;44.760;37.678;2023-02-01T00:47:57;22.08;;;6.60;;
74922;SDS011;64715;44.760;37.678;2023-02-01T00:48:58;22.40;;;5.85;;
74922;SDS011;64715;44.760;37.678;2023-02-01T00:50:00;20.60;;;6.43;;
74922;SDS011;64715;44.760;37.678;2023-02-01T00:51:03;21.88;;;7.18;;
74922;SDS011;64715;44.760;37.678;2023-02-01T00:52:14;25.57;;;6.73;;
74922;SDS011;64715;44.760;37.678;2023-02-01T00:53:15;24.20;;;7.35;;
74922;SDS011;64715;44.760;37.678;2023-02-01T00:54:16;25.02;;;7.85;;
74922;SDS011;64715;44.760;37.678;2023-02-01T00:55:17;26.25;;;8.10;;
74922;SDS011;64715;44.760;37.678;2023-02-01T00:56:18;25.50;;;7.88;;
74922;SDS011;64715;44.760;37.678;2023-02-01T00:57:19;28.88;;;8.43;;
74922;SDS011;64715;44.760;37.678;2023-02-01T00:58:20;23.08;;;7.82;;
74922;SDS011;64715;44.760;37.678;2023-02-01T00:59:22;26.42;;;8.25;;
74922;SDS011;64715;44.760;37.678;2023-02-01T01:00:23;22.87;;;6.90;;
74922;SDS011;64715;44.760;37.678;2023-02-01T01:01:26;20.80;;;6.10;;
74922;SDS011;64715;44.760;37.678;2023-02-01T01:02:29;20.48;;;5.97;;
74922;SDS011;64715;44.760;37.678;2023-02-01T01:03:30;20.88;;;6.30;;
74922;SDS011;64715;44.760;37.678;2023-02-01T01:04:34;21.90;;;6.00;;
74922;SDS011;64715;44.760;37.678;2023-02-01T01:05:34;19.25;;;5.32;;
74922;SDS011;64715;44.760;37.678;2023-02-01T01:06:35;17.25;;;6.13;;
74922;SDS011;64715;44.760;37.678;2023-02-01T01:07:38;19.47;;;6.33;;
74922;SDS011;64715;44.760;37.678;2023-02-01T01:08:39;17.55;;;5.72;;
74922;SDS011;64715;44.760;37.678;2023-02-01T01:09:40;17.40;;;5.63;;
74922;SDS011;64715;44.760;37.678;2023-02-01T01:10:42;16.60;;;5.63;;
74922;SDS011;64715;44.760;37.678;2023-02-01T01:11:43;17.83;;;6.30;;
74922;SDS011;64715;44.760;37.678;2023-02-01T01:12:45;16.70;;;5.95;;
74922;SDS011;64715;44.760;37.678;2023-02-01T01:13:46;19.27;;;6.13;;
74922;SDS011;64715;44.760;37.678;2023-02-01T01:14:48;19.43;;;5.43;;
74922;SDS011;64715;44.760;37.678;2023-02-01T01:15:49;15.48;;;5.15;;
74922;SDS011;64715;44.760;37.678;2023-02-01T01:16:50;15.82;;;4.90;;
74922;SDS011;64715;44.760;37.678;2023-02-01T01:17:51;20.98;;;5.43;;
74922;SDS011;64715;44.760;37.678;2023-02-01T01:18:52;19.08;;;5.72;;
74922;SDS011;64715;44.760;37.678;2023-02-01T01:19:55;15.95;;;5.07;;
74922;SDS011;64715;44.760;37.678;2023-02-01T01:20:56;19.93;;;5.30;;
74922;SDS011;64715;44.760;37.678;2023-02-01T01:21:57;15.32;;;4.57;;
74922;SDS011;64715;44.760;37.678;2023-02-01T01:22:58;16.25;;;5.10;;
74922;SDS011;64715;44.760;37.678;2023-02-01T01:23:59;17.00;;;4.90;;
74922;SDS011;64715;44.760;37.678;2023-02-01T01:25:01;17.35;;;5.22;;
74922;SDS011;64715;44.760;37.678;2023-02-01T01:26:08;17.55;;;5.88;;
74922;SDS011;64715;44.760;37.678;2023-02-01T01:27:13;17.70;;;5.07;;
74922;SDS011;64715;44.760;37.678;2023-02-01T01:28:14;16.40;;;4.30;;
74922;SDS011;64715;44.760;37.678;2023-02-01T01:29:15;17.80;;;5.13;;
74922;SDS011;64715;44.760;37.678;2023-02-01T01:30:16;17.33;;;4.85;;
74922;SDS011;64715;44.760;37.678;2023-02-01T01:31:18;17.52;;;4.82;;
74922;SDS011;64715;44.760;37.678;2023-02-01T01:32:20;16.73;;;5.00;;
74922;SDS011;64715;44.760;37.678;2023-02-01T01:33:21;15.77;;;5.20;;
74922;SDS011;64715;44.760;37.678;2023-02-01T01:34:22;15.48;;;4.85;;
74922;SDS011;64715;44.760;37.678;2023-02-01T01:35:23;15.45;;;4.65;;
74922;SDS011;64715;44.760;37.678;2023-02-01T01:36:25;16.08;;;4.70;;
74922;SDS011;64715;44.760;37.678;2023-02-01T01:37:27;23.70;;;7.07;;
74922;SDS011;64715;44.760;37.678;2023-02-01T01:38:28;21.67;;;7.00;;
74922;SDS011;64715;44.760;37.678;2023-02-01T01:39:30;27.27;;;8.52;;
74922;SDS011;64715;44.760;37.678;2023-02-01T01:40:31;28.15;;;9.15;;
74922;SDS011;64715;44.760;37.678;2023-02-01T01:41:32;32.10;;;11.70;;
74922;SDS011;64715;44.760;37.678;2023-02-01T01:42:47;45.35;;;13.38;;
74922;SDS011;64715;44.760;37.678;2023-02-01T01:43:53;43.22;;;14.52;;
74922;SDS011;64715;44.760;37.678;2023-02-01T01:45:07;37.40;;;12.50;;
74922;SDS011;64715;44.760;37.678;2023-02-01T01:46:22;34.85;;;12.07;;
74922;SDS011;64715;44.760;37.678;2023-02-01T01:47:26;26.77;;;8.50;;
74922;SDS011;64715;44.760;37.678;2023-02-01T01:48:30;21.00;;;5.87;;
74922;SDS011;64715;44.760;37.678;2023-02-01T01:49:31;17.25;;;5.18;;
74922;SDS011;64715;44.760;37.678;2023-02-01T01:51:42;23.30;;;5.63;;
74922;SDS011;64715;44.760;37.678;2023-02-01T01:52:56;21.35;;;5.97;;
74922;SDS011;64715;44.760;37.678;2023-02-01T01:54:05;19.20;;;5.88;;
74922;SDS011;64715;44.760;37.678;2023-02-01T01:55:21;19.80;;;5.70;;
74922;SDS011;64715;44.760;37.678;2023-02-01T01:56:25;22.75;;;5.35;;
74922;SDS011;64715;44.760;37.678;2023-02-01T01:57:35;20.23;;;5.22;;
74922;SDS011;64715;44.760;37.678;2023-02-01T01:58:40;19.15;;;5.43;;
74922;SDS011;64715;44.760;37.678;2023-02-01T01:59:41;16.77;;;4.50;;
74922;SDS011;64715;44.760;37.678;2023-02-01T02:00:47;20.15;;;5.30;;
74922;SDS011;64715;44.760;37.678;2023-02-01T02:01:48;20.63;;;4.82;;
74922;SDS011;64715;44.760;37.678;2023-02-01T02:02:52;19.92;;;5.45;;
74922;SDS011;64715;44.760;37.678;2023-02-01T02:03:57;14.73;;;4.53;;
74922;SDS011;64715;44.760;37.678;2023-02-01T02:04:59;16.13;;;4.00;;
74922;SDS011;64715;44.760;37.678;2023-02-01T02:06:00;15.30;;;4.43;;
74922;SDS011;64715;44.760;37.678;2023-02-01T02:07:20;14.13;;;4.35;;
74922;SDS011;64715;44.760;37.678;2023-02-01T02:08:25;13.23;;;3.60;;
74922;SDS011;64715;44.760;37.678;2023-02-01T02:09:27;11.60;;;3.33;;
74922;SDS011;64715;44.760;37.678;2023-02-01T02:10:28;11.85;;;3.90;;
74922;SDS011;64715;44.760;37.678;2023-02-01T02:11:49;11.70;;;3.42;;
74922;SDS011;64715;44.760;37.678;2023-02-01T02:12:50;12.50;;;4.07;;
74922;SDS011;64715;44.760;37.678;2023-02-01T02:13:52;13.18;;;3.70;;
74922;SDS011;64715;44.760;37.678;2023-02-01T02:14:55;10.90;;;3.35;;
74922;SDS011;64715;44.760;37.678;2023-02-01T02:18:19;11.83;;;3.60;;
74922;SDS011;64715;44.760;37.678;2023-02-01T02:19:49;13.30;;;3.65;;
74922;SDS011;64715;44.760;37.678;2023-02-01T02:25:33;10.95;;;3.10;;
74922;SDS011;64715;44.760;37.678;2023-02-01T02:41:00;13.35;;;3.83;;
74922;SDS011;64715;44.760;37.678;2023-02-01T02:42:17;19.17;;;4.30;;
74922;SDS011;64715;44.760;37.678;2023-02-01T02:43:46;16.40;;;4.45;;
74922;SDS011;64715;44.760;37.678;2023-02-01T02:45:13;14.32;;;4.20;;
74922;SDS011;64715;44.760;37.678;2023-02-01T02:46:40;12.80;;;3.70;;
74922;SDS011;64715;44.760;37.678;2023-02-01T02:48:11;15.15;;;3.88;;
74922;SDS011;64715;44.760;37.678;2023-02-01T02:50:36;15.57;;;4.38;;
74922;SDS011;64715;44.760;37.678;2023-02-01T02:51:59;14.38;;;4.57;;
74922;SDS011;64715;44.760;37.678;2023-02-01T02:53:28;15.38;;;4.80;;
74922;SDS011;64715;44.760;37.678;2023-02-01T02:54:52;13.90;;;4.78;;
74922;SDS011;64715;44.760;37.678;2023-02-01T02:55:56;15.13;;;4.47;;
74922;SDS011;64715;44.760;37.678;2023-02-01T02:57:18;16.05;;;5.00;;
74922;SDS011;64715;44.760;37.678;2023-02-01T02:58:44;15.55;;;4.50;;
74922;SDS011;64715;44.760;37.678;2023-02-01T03:00:09;14.15;;;4.30;;
74922;SDS011;64715;44.760;37.678;2023-02-01T03:01:33;14.68;;;4.72;;
74922;SDS011;64715;44.760;37.678;2023-02-01T03:02:53;14.98;;;4.20;;
74922;SDS011;64715;44.760;37.678;2023-02-01T03:04:14;12.80;;;3.50;;
74922;SDS011;64715;44.760;37.678;2023-02-01T03:05:19;14.48;;;3.75;;
74922;SDS011;64715;44.760;37.678;2023-02-01T03:06:22;14.00;;;3.90;;
74922;SDS011;64715;44.760;37.678;2023-02-01T03:07:46;13.18;;;4.22;;
74922;SDS011;64715;44.760;37.678;2023-02-01T03:08:57;11.07;;;3.33;;
74922;SDS011;64715;44.760;37.678;2023-02-01T03:09:59;11.43;;;2.90;;
74922;SDS011;64715;44.760;37.678;2023-02-01T03:11:07;12.73;;;3.40;;
74922;SDS011;64715;44.760;37.678;2023-02-01T03:12:11;13.27;;;3.72;;
74922;SDS011;64715;44.760;37.678;2023-02-01T03:14:56;14.68;;;4.50;;
74922;SDS011;64715;44.760;37.678;2023-02-01T03:17:18;13.45;;;4.20;;
74922;SDS011;64715;44.760;37.678;2023-02-01T03:18:30;11.88;;;3.60;;
74922;SDS011;64715;44.760;37.678;2023-02-01T03:19:39;12.48;;;3.88;;
74922;SDS011;64715;44.760;37.678;2023-02-01T03:20:49;13.03;;;3.57;;
74922;SDS011;64715;44.760;37.678;2023-02-01T03:22:06;15.07;;;4.65;;
74922;SDS011;64715;44.760;37.678;2023-02-01T03:23:11;14.55;;;4.32;;
74922;SDS011;64715;44.760;37.678;2023-02-01T03:24:27;14.70;;;4.47;;
74922;SDS011;64715;44.760;37.678;2023-02-01T03:25:36;15.85;;;4.85;;
74922;SDS011;64715;44.760;37.678;2023-02-01T03:26:37;14.95;;;5.03;;
74922;SDS011;64715;44.760;37.678;2023-02-01T03:27:52;14.93;;;4.70;;
74922;SDS011;64715;44.760;37.678;2023-02-01T03:29:14;13.68;;;4.32;;
74922;SDS011;64715;44.760;37.678;2023-02-01T03:30:22;12.27;;;4.20;;
74922;SDS011;64715;44.760;37.678;2023-02-01T03:31:24;13.55;;;3.90;;
74922;SDS011;64715;44.760;37.678;2023-02-01T03:32:25;12.83;;;3.67;;
74922;SDS011;64715;44.760;37.678;2023-02-01T03:33:26;12.43;;;3.63;;
74922;SDS011;64715;44.760;37.678;2023-02-01T03:34:31;13.23;;;3.45;;
74922;SDS011;64715;44.760;37.678;2023-02-01T03:36:59;15.00;;;4.45;;
74922;SDS011;64715;44.760;37.678;2023-02-01T03:38:09;14.30;;;4.10;;
74922;SDS011;64715;44.760;37.678;2023-02-01T03:42:30;11.55;;;3.00;;
74922;SDS011;64715;44.760;37.678;2023-02-01T03:43:46;11.60;;;2.88;;
74922;SDS011;64715;44.760;37.678;2023-02-01T03:44:51;11.97;;;3.00;;
74922;SDS011;64715;44.760;37.678;2023-02-01T03:46:06;9.48;;;2.78;;
74922;SDS011;64715;44.760;37.678;2023-02-01T03:47:19;11.00;;;3.22;;
74922;SDS011;64715;44.760;37.678;2023-02-01T03:48:26;10.15;;;3.33;;
74922;SDS011;64715;44.760;37.678;2023-02-01T03:49:37;11.00;;;2.70;;
74922;SDS011;64715;44.760;37.678;2023-02-01T03:50:52;8.75;;;2.75;;
74922;SDS011;64715;44.760;37.678;2023-02-01T03:51:58;9.73;;;2.50;;
74922;SDS011;64715;44.760;37.678;2023-02-01T03:53:10;10.95;;;2.78;;
74922;SDS011;64715;44.760;37.678;2023-02-01T03:54:18;8.98;;;2.67;;
74922;SDS011;64715;44.760;37.678;2023-02-01T03:55:21;9.90;;;2.85;;
74922;SDS011;64715;44.760;37.678;2023-02-01T03:56:23;9.40;;;2.70;;
74922;SDS011;64715;44.760;37.678;2023-02-01T03:57:32;9.48;;;2.58;;
74922;SDS011;64715;44.760;37.678;2023-02-01T03:58:37;10.20;;;2.30;;
74922;SDS011;64715;44.760;37.678;2023-02-01T03:59:41;9.93;;;2.78;;
74922;SDS011;64715;44.760;37.678;2023-02-01T04:01:06;9.13;;;2.67;;
74922;SDS011;64715;44.760;37.678;2023-02-01T04:02:09;8.00;;;2.08;;
74922;SDS011;64715;44.760;37.678;2023-02-01T04:03:11;8.20;;;2.25;;
74922;SDS011;64715;44.760;37.678;2023-02-01T04:04:12;6.90;;;1.95;;
74922;SDS011;64715;44.760;37.678;2023-02-01T04:05:22;7.30;;;1.83;;
74922;SDS011;64715;44.760;37.678;2023-02-01T04:06:31;8.53;;;2.30;;
74922;SDS011;64715;44.760;37.678;2023-02-01T04:07:36;8.55;;;3.35;;
74922;SDS011;64715;44.760;37.678;2023-02-01T04:08:37;7.85;;;2.55;;
74922;SDS011;64715;44.760;37.678;2023-02-01T04:09:38;8.45;;;2.60;;
74922;SDS011;64715;44.760;37.678;2023-02-01T04:10:39;7.47;;;1.80;;
74922;SDS011;64715;44.760;37.678;2023-02-01T04:11:40;7.22;;;1.98;;
74922;SDS011;64715;44.760;37.678;2023-02-01T04:12:41;7.03;;;1.90;;
74922;SDS011;64715;44.760;37.678;2023-02-01T04:13:42;7.40;;;2.20;;
74922;SDS011;64715;44.760;37.678;2023-02-01T04:14:43;8.77;;;2.17;;
74922;SDS011;64715;44.760;37.678;2023-02-01T04:15:46;8.40;;;2.10;;
74922;SDS011;64715;44.760;37.678;2023-02-01T04:16:50;7.65;;;1.83;;
74922;SDS011;64715;44.760;37.678;2023-02-01T04:17:50;7.13;;;1.60;;
74922;SDS011;64715;44.760;37.678;2023-02-01T04:18:51;5.75;;;1.17;;
74922;SDS011;64715;44.760;37.678;2023-02-01T04:19:52;7.30;;;1.67;;
74922;SDS011;64715;44.760;37.678;2023-02-01T04:20:53;7.53;;;1.47;;
74922;SDS011;64715;44.760;37.678;2023-02-01T04:21:54;7.30;;;1.63;;
74922;SDS011;64715;44.760;37.678;2023-02-01T04:22:55;6.43;;;1.45;;
74922;SDS011;64715;44.760;37.678;2023-02-01T04:23:56;6.75;;;1.77;;
74922;SDS011;64715;44.760;37.678;2023-02-01T04:24:57;6.95;;;1.63;;
74922;SDS011;64715;44.760;37.678;2023-02-01T04:25:59;6.90;;;1.63;;
74922;SDS011;64715;44.760;37.678;2023-02-01T04:27:01;8.38;;;1.75;;
74922;SDS011;64715;44.760;37.678;2023-02-01T04:28:03;8.47;;;2.33;;
74922;SDS011;64715;44.760;37.678;2023-02-01T04:29:05;10.70;;;2.45;;
74922;SDS011;64715;44.760;37.678;2023-02-01T04:30:06;8.82;;;2.50;;
74922;SDS011;64715;44.760;37.678;2023-02-01T04:31:10;9.68;;;3.17;;
74922;SDS011;64715;44.760;37.678;2023-02-01T04:32:11;11.32;;;2.83;;
74922;SDS011;64715;44.760;37.678;2023-02-01T04:33:12;14.85;;;5.60;;
74922;SDS011;64715;44.760;37.678;2023-02-01T04:34:16;16.35;;;8.25;;
74922;SDS011;64715;44.760;37.678;2023-02-01T04:35:17;14.10;;;6.07;;
74922;SDS011;64715;44.760;37.678;2023-02-01T04:36:18;11.70;;;5.47;;
74922;SDS011;64715;44.760;37.678;2023-02-01T04:37:22;11.73;;;4.27;;
74922;SDS011;64715;44.760;37.678;2023-02-01T04:38:23;11.00;;;3.83;;
74922;SDS011;64715;44.760;37.678;2023-02-01T04:39:24;11.52;;;3.35;;
74922;SDS011;64715;44.760;37.678;2023-02-01T04:40:25;10.23;;;3.03;;
74922;SDS011;64715;44.760;37.678;2023-02-01T04:41:26;9.93;;;3.28;;
74922;SDS011;64715;44.760;37.678;2023-02-01T04:42:27;8.82;;;2.60;;
74922;SDS011;64715;44.760;37.678;2023-02-01T04:43:28;8.38;;;2.40;;
74922;SDS011;64715;44.760;37.678;2023-02-01T04:44:29;8.00;;;2.20;;
74922;SDS011;64715;44.760;37.678;2023-02-01T04:45:31;7.25;;;2.17;;
74922;SDS011;64715;44.760;37.678;2023-02-01T04:46:31;9.45;;;2.88;;
74922;SDS011;64715;44.760;37.678;2023-02-01T04:47:32;8.43;;;2.80;;
74922;SDS011;64715;44.760;37.678;2023-02-01T04:48:34;9.20;;;2.33;;
74922;SDS011;64715;44.760;37.678;2023-02-01T04:49:35;9.70;;;2.47;;
74922;SDS011;64715;44.760;37.678;2023-02-01T04:50:35;8.90;;;2.00;;
74922;SDS011;64715;44.760;37.678;2023-02-01T04:51:37;6.78;;;1.98;;
74922;SDS011;64715;44.760;37.678;2023-02-01T04:52:38;9.05;;;2.40;;
74922;SDS011;64715;44.760;37.678;2023-02-01T04:53:39;7.90;;;2.28;;
74922;SDS011;64715;44.760;37.678;2023-02-01T04:54:40;7.20;;;1.85;;
74922;SDS011;64715;44.760;37.678;2023-02-01T04:55:41;10.93;;;2.40;;
74922;SDS011;64715;44.760;37.678;2023-02-01T04:56:42;7.30;;;1.70;;
74922;SDS011;64715;44.760;37.678;2023-02-01T04:57:44;7.80;;;1.83;;
74922;SDS011;64715;44.760;37.678;2023-02-01T04:58:45;7.43;;;1.85;;
74922;SDS011;64715;44.760;37.678;2023-02-01T04:59:46;6.80;;;1.77;;
74922;SDS011;64715;44.760;37.678;2023-02-01T05:00:47;7.57;;;2.22;;
74922;SDS011;64715;44.760;37.678;2023-02-01T05:01:49;11.10;;;2.23;;
74922;SDS011;64715;44.760;37.678;2023-02-01T05:02:50;6.88;;;2.03;;
74922;SDS011;64715;44.760;37.678;2023-02-01T05:03:51;8.57;;;2.13;;
74922;SDS011;64715;44.760;37.678;2023-02-01T05:04:53;8.48;;;2.70;;
74922;SDS011;64715;44.760;37.678;2023-02-01T05:05:56;8.88;;;2.85;;
74922;SDS011;64715;44.760;37.678;2023-02-01T05:06:57;9.68;;;3.22;;
74922;SDS011;64715;44.760;37.678;2023-02-01T05:07:57;8.05;;;2.67;;
74922;SDS011;64715;44.760;37.678;2023-02-01T05:08:58;8.88;;;2.60;;
74922;SDS011;64715;44.760;37.678;2023-02-01T05:09:59;7.23;;;2.07;;
74922;SDS011;64715;44.760;37.678;2023-02-01T05:11:00;10.38;;;2.63;;
74922;SDS011;64715;44.760;37.678;2023-02-01T05:12:04;12.07;;;2.97;;
74922;SDS011;64715;44.760;37.678;2023-02-01T05:13:24;9.55;;;3.22;;
74922;SDS011;64715;44.760;37.678;2023-02-01T05:14:44;9.88;;;3.15;;
74922;SDS011;64715;44.760;37.678;2023-02-01T05:15:45;12.15;;;3.53;;
74922;SDS011;64715;44.760;37.678;2023-02-01T05:16:46;10.70;;;3.35;;
74922;SDS011;64715;44.760;37.678;2023-02-01T05:17:48;12.77;;;2.92;;
74922;SDS011;64715;44.760;37.678;2023-02-01T05:18:49;10.40;;;2.92;;
74922;SDS011;64715;44.760;37.678;2023-02-01T05:19:50;11.20;;;3.28;;
74922;SDS011;64715;44.760;37.678;2023-02-01T05:20:51;9.75;;;3.00;;
74922;SDS011;64715;44.760;37.678;2023-02-01T05:21:52;12.35;;;3.80;;
74922;SDS011;64715;44.760;37.678;2023-02-01T05:22:53;10.03;;;3.37;;
74922;SDS011;64715;44.760;37.678;2023-02-01T05:23:54;11.15;;;3.58;;
74922;SDS011;64715;44.760;37.678;2023-02-01T05:25:10;13.35;;;4.93;;
74922;SDS011;64715;44.760;37.678;2023-02-01T05:26:11;15.00;;;4.75;;
74922;SDS011;64715;44.760;37.678;2023-02-01T05:27:12;14.60;;;3.95;;
74922;SDS011;64715;44.760;37.678;2023-02-01T05:28:13;13.10;;;3.88;;
74922;SDS011;64715;44.760;37.678;2023-02-01T05:29:14;11.50;;;4.22;;
74922;SDS011;64715;44.760;37.678;2023-02-01T05:30:16;10.67;;;3.73;;
74922;SDS011;64715;44.760;37.678;2023-02-01T05:31:17;12.27;;;4.97;;
74922;SDS011;64715;44.760;37.678;2023-02-01T05:32:18;14.38;;;5.03;;
74922;SDS011;64715;44.760;37.678;2023-02-01T05:33:19;10.73;;;3.97;;
74922;SDS011;64715;44.760;37.678;2023-02-01T05:34:20;10.50;;;4.00;;
74922;SDS011;64715;44.760;37.678;2023-02-01T05:35:21;11.35;;;3.65;;
74922;SDS011;64715;44.760;37.678;2023-02-01T05:36:22;9.45;;;3.53;;
74922;SDS011;64715;44.760;37.678;2023-02-01T05:37:23;10.73;;;3.47;;
74922;SDS011;64715;44.760;37.678;2023-02-01T05:38:24;12.13;;;3.78;;
74922;SDS011;64715;44.760;37.678;2023-02-01T05:39:25;11.23;;;3.72;;
74922;SDS011;64715;44.760;37.678;2023-02-01T05:40:26;7.80;;;2.45;;
74922;SDS011;64715;44.760;37.678;2023-02-01T05:41:27;10.60;;;3.70;;
74922;SDS011;64715;44.760;37.678;2023-02-01T05:42:28;17.57;;;6.97;;
74922;SDS011;64715;44.760;37.678;2023-02-01T05:43:29;16.63;;;8.88;;
74922;SDS011;64715;44.760;37.678;2023-02-01T05:44:30;8.82;;;2.72;;
74922;SDS011;64715;44.760;37.678;2023-02-01T05:45:31;11.00;;;3.05;;
74922;SDS011;64715;44.760;37.678;2023-02-01T05:46:33;13.55;;;4.20;;
74922;SDS011;64715;44.760;37.678;2023-02-01T05:47:35;10.77;;;4.43;;
74922;SDS011;64715;44.760;37.678;2023-02-01T05:48:36;9.35;;;3.40;;
74922;SDS011;64715;44.760;37.678;2023-02-01T05:49:37;11.47;;;4.03;;
74922;SDS011;64715;44.760;37.678;2023-02-01T05:50:38;11.50;;;3.28;;
74922;SDS011;64715;44.760;37.678;2023-02-01T05:51:43;11.30;;;4.00;;
74922;SDS011;64715;44.760;37.678;2023-02-01T05:52:43;9.75;;;3.33;;
74922;SDS011;64715;44.760;37.678;2023-02-01T05:53:44;9.75;;;3.20;;
74922;SDS011;64715;44.760;37.678;2023-02-01T05:54:46;10.82;;;3.47;;
74922;SDS011;64715;44.760;37.678;2023-02-01T05:55:50;10.15;;;2.95;;
74922;SDS011;64715;44.760;37.678;2023-02-01T05:56:51;8.63;;;3.13;;
74922;SDS011;64715;44.760;37.678;2023-02-01T05:57:52;9.63;;;2.85;;
74922;SDS011;64715;44.760;37.678;2023-02-01T05:58:52;9.77;;;3.10;;
74922;SDS011;64715;44.760;37.678;2023-02-01T05:59:53;17.25;;;5.95;;
74922;SDS011;64715;44.760;37.678;2023-02-01T06:00:55;37.15;;;11.75;;
74922;SDS011;64715;44.760;37.678;2023-02-01T06:01:59;40.67;;;13.38;;
74922;SDS011;64715;44.760;37.678;2023-02-01T06:02:59;36.07;;;11.83;;
74922;SDS011;64715;44.760;37.678;2023-02-01T06:04:01;45.80;;;14.80;;
74922;SDS011;64715;44.760;37.678;2023-02-01T06:05:02;37.90;;;11.68;;
74922;SDS011;64715;44.760;37.678;2023-02-01T06:06:04;29.60;;;10.60;;
74922;SDS011;64715;44.760;37.678;2023-02-01T06:07:05;26.55;;;9.50;;
74922;SDS011;64715;44.760;37.678;2023-02-01T06:08:07;26.20;;;9.82;;
74922;SDS011;64715;44.760;37.678;2023-02-01T06:09:09;26.05;;;9.43;;
74922;SDS011;64715;44.760;37.678;2023-02-01T06:10:10;24.08;;;9.55;;
74922;SDS011;64715;44.760;37.678;2023-02-01T06:11:11;19.67;;;7.38;;
74922;SDS011;64715;44.760;37.678;2023-02-01T06:12:13;19.40;;;5.70;;
74922;SDS011;64715;44.760;37.678;2023-02-01T06:13:14;17.83;;;6.20;;
74922;SDS011;64715;44.760;37.678;2023-02-01T06:14:15;19.77;;;7.65;;
74922;SDS011;64715;44.760;37.678;2023-02-01T06:15:16;20.48;;;7.40;;
74922;SDS011;64715;44.760;37.678;2023-02-01T06:16:18;17.98;;;7.07;;
74922;SDS011;64715;44.760;37.678;2023-02-01T06:17:19;18.08;;;6.15;;
74922;SDS011;64715;44.760;37.678;2023-02-01T06:18:20;14.35;;;5.72;;
74922;SDS011;64715;44.760;37.678;2023-02-01T06:19:22;13.18;;;4.95;;
74922;SDS011;64715;44.760;37.678;2023-02-01T06:20:23;10.33;;;3.43;;
74922;SDS011;64715;44.760;37.678;2023-02-01T06:21:24;11.10;;;3.42;;
74922;SDS011;64715;44.760;37.678;2023-02-01T06:22:25;11.82;;;3.53;;
74922;SDS011;64715;44.760;37.678;2023-02-01T06:23:28;11.20;;;4.03;;
74922;SDS011;64715;44.760;37.678;2023-02-01T06:24:30;13.02;;;5.22;;
74922;SDS011;64715;44.760;37.678;2023-02-01T06:25:31;14.98;;;5.55;;
74922;SDS011;64715;44.760;37.678;2023-02-01T06:26:33;12.57;;;4.63;;
74922;SDS011;64715;44.760;37.678;2023-02-01T06:27:34;12.07;;;4.28;;
74922;SDS011;64715;44.760;37.678;2023-02-01T06:28:36;14.85;;;5.18;;
74922;SDS011;64715;44.760;37.678;2023-02-01T06:29:36;15.20;;;4.83;;
74922;SDS011;64715;44.760;37.678;2023-02-01T06:30:38;15.13;;;4.75;;
74922;SDS011;64715;44.760;37.678;2023-02-01T06:31:41;14.77;;;4.78;;
74922;SDS011;64715;44.760;37.678;2023-02-01T06:32:43;13.02;;;4.43;;
74922;SDS011;64715;44.760;37.678;2023-02-01T06:33:43;14.45;;;4.90;;
74922;SDS011;64715;44.760;37.678;2023-02-01T06:34:47;13.52;;;5.15;;
74922;SDS011;64715;44.760;37.678;2023-02-01T06:35:48;11.77;;;4.57;;
74922;SDS011;64715;44.760;37.678;2023-02-01T06:36:49;13.10;;;3.90;;
74922;SDS011;64715;44.760;37.678;2023-02-01T06:37:50;11.40;;;3.90;;
74922;SDS011;64715;44.760;37.678;2023-02-01T06:38:51;12.00;;;3.67;;
74922;SDS011;64715;44.760;37.678;2023-02-01T06:39:52;13.27;;;4.00;;
74922;SDS011;64715;44.760;37.678;2023-02-01T06:40:53;14.50;;;4.45;;
74922;SDS011;64715;44.760;37.678;2023-02-01T06:41:56;13.73;;;4.60;;
74922;SDS011;64715;44.760;37.678;2023-02-01T06:42:57;13.15;;;4.63;;
74922;SDS011;64715;44.760;37.678;2023-02-01T06:43:58;16.77;;;6.70;;
74922;SDS011;64715;44.760;37.678;2023-02-01T06:44:59;24.43;;;9.10;;
74922;SDS011;64715;44.760;37.678;2023-02-01T06:46:03;23.43;;;11.63;;
74922;SDS011;64715;44.760;37.678;2023-02-01T06:47:06;29.90;;;16.10;;